Auriesville, New York
Current Conditions -  °F | °C
As of 8:55 PM on Sunday 25 Jan 2015 (Local Time) from KNY0 Reporting Station
Clear Clear  
Wind Chill: -2°   Ceiling: Unl
Heat Index:   Visibility: 10mi
Dew Point: -4°   Wind: 7mph
Humidity: 55%   Direction: 280°W
Pressure: 29.97"   Gusts: NA
Location:  42.93°N, 74.32°W
Report Text: KNY0 260155Z AUTO 28006KT 10SM CLR M13/M20 A2997 RMK AO2 T11261199
Loading
Personal Weather Stations






























Interactive Weather Map New forecast layout! Learn more

10-Day Weather Forecast

Advertisements
Track Severe Weather on mobile